Aviation Digital Data Service (ADDS)

Output produced by METARs form (0238 UTC 20 January 2022)
found at http://www.aviationweather.gov/metar/data/
 
METAR text: LFMY 200230Z AUTO 32014KT 290V350 9999 ////// 05/M00 Q1025
Conditions at: LFMY (SALON (FAFB) , FR) observed 0230 UTC 20 January 2022
Temperature: 5.0°C (41°F)
Dewpoint: 0.0°C (32°F) [RH = 70%]
Pressure (altimeter): 30.27 inches Hg (1025.0 mb)
Winds: from the NW (320 degrees) at 16 MPH (14 knots; 7.2 m/s)
Visibility: 6 or more miles (10+ km)
Ceiling: unknown
Clouds: missing
Weather: no significant weather observed at this time

METAR text: LFMY 200200Z AUTO 32012KT 290V350 9999 ////// 05/M00 Q1025
Conditions at: LFMY (SALON (FAFB) , FR) observed 0200 UTC 20 January 2022
Temperature: 5.0°C (41°F)
Dewpoint: 0.0°C (32°F) [RH = 70%]
Pressure (altimeter): 30.27 inches Hg (1025.0 mb)
Winds: from the NW (320 degrees) at 14 MPH (12 knots; 6.2 m/s)
Visibility: 6 or more miles (10+ km)
Ceiling: unknown
Clouds: missing
Weather: no significant weather observed at this time